Time;durP1;ratioP1;P1;durP2;ratioP2;P2;SDS_P1;SDS_P2;PMS_P1;PMS_P2;Temp;Humidity;BMP_temperature;BMP_pressure;BME280_temperature;BME280_humidity;BME280_pressure;Samples;Min_cycle;Max_cycle;Signal;HPM_P1;HPM_P2
2023/10/24 00:01:32;;;;;;;14.98;5.43;;;12.50;99.90;;;;;;5085209;28;20054;-82
2023/10/24 00:03:57;;;;;;;12.80;4.80;;;12.50;99.90;;;;;;5102197;28;20035;-81
2023/10/24 00:06:23;;;;;;;9.95;4.80;;;12.50;99.90;;;;;;5108811;28;20020;-86
2023/10/24 00:08:49;;;;;;;11.10;4.93;;;12.50;99.90;;;;;;5074189;28;20133;-80
2023/10/24 00:11:14;;;;;;;8.88;5.30;;;12.50;99.90;;;;;;5073077;28;20081;-81
2023/10/24 00:13:40;;;;;;;10.38;5.15;;;12.40;99.90;;;;;;5073865;28;20389;-81
2023/10/24 00:16:06;;;;;;;6.57;4.72;;;12.40;99.90;;;;;;5073806;28;20177;-81
2023/10/24 00:18:31;;;;;;;7.82;5.40;;;12.40;99.90;;;;;;5073902;28;20504;-81
2023/10/24 00:20:57;;;;;;;7.40;4.65;;;12.50;99.90;;;;;;5074368;28;20029;-82
2023/10/24 00:23:23;;;;;;;8.73;5.13;;;12.50;99.90;;;;;;5073874;28;20424;-81
2023/10/24 00:25:49;;;;;;;8.52;5.38;;;12.50;99.90;;;;;;5074239;28;20027;-81
2023/10/24 00:28:14;;;;;;;10.07;5.43;;;12.50;99.90;;;;;;5073708;28;20021;-80
2023/10/24 00:30:40;;;;;;;9.65;4.80;;;12.50;99.90;;;;;;5074968;28;20372;-81
2023/10/24 00:33:06;;;;;;;8.90;4.78;;;12.50;99.90;;;;;;5074158;28;20032;-81
2023/10/24 00:35:33;;;;;;;10.95;5.18;;;12.50;99.90;;;;;;5073003;28;20056;-81
2023/10/24 00:37:58;;;;;;;7.47;4.68;;;12.50;99.90;;;;;;5073852;28;20028;-81
2023/10/24 00:40:24;;;;;;;8.25;4.60;;;12.50;99.90;;;;;;5073296;28;20564;-81
2023/10/24 00:42:51;;;;;;;7.20;4.38;;;12.50;99.90;;;;;;5073651;28;20473;-81
2023/10/24 00:45:16;;;;;;;9.23;4.68;;;12.50;99.90;;;;;;5074382;28;20100;-81
2023/10/24 00:47:43;;;;;;;7.57;4.65;;;12.50;99.90;;;;;;5073724;28;20067;-80
2023/10/24 00:50:09;;;;;;;7.88;4.45;;;12.50;99.90;;;;;;5073497;28;20028;-80
2023/10/24 00:52:36;;;;;;;8.63;4.65;;;12.60;99.90;;;;;;5073143;28;20025;-81
2023/10/24 00:55:05;;;;;;;9.35;5.03;;;12.60;99.90;;;;;;5073466;28;20024;-81
2023/10/24 00:57:31;;;;;;;8.45;4.53;;;12.60;99.90;;;;;;5073924;28;20021;-81
2023/10/24 00:59:57;;;;;;;9.60;4.78;;;12.60;99.90;;;;;;5073367;28;20027;-81
2023/10/24 01:02:23;;;;;;;9.27;5.00;;;12.60;99.90;;;;;;5073981;28;20086;-81
2023/10/24 01:04:53;;;;;;;11.45;5.43;;;12.60;99.90;;;;;;5073771;28;20032;-81
2023/10/24 01:07:19;;;;;;;9.10;5.17;;;12.60;99.90;;;;;;5072667;28;20021;-81
2023/10/24 01:09:45;;;;;;;8.18;4.38;;;12.60;99.90;;;;;;5073387;28;20035;-81
2023/10/24 01:12:10;;;;;;;6.80;4.40;;;12.50;99.90;;;;;;5074238;28;20464;-81
2023/10/24 01:14:36;;;;;;;7.13;4.68;;;12.50;99.90;;;;;;5072533;28;20116;-81
2023/10/24 01:17:13;;;;;;;9.05;4.53;;;12.50;99.90;;;;;;5072611;28;20090;-81
2023/10/24 01:19:38;;;;;;;7.97;5.22;;;12.50;99.90;;;;;;5072758;28;20074;-81
2023/10/24 01:22:04;;;;;;;11.27;5.55;;;12.60;99.90;;;;;;5072934;28;20029;-81
2023/10/24 01:24:30;;;;;;;7.55;4.68;;;12.50;99.90;;;;;;5072445;28;20074;-81
2023/10/24 01:26:58;;;;;;;9.07;4.90;;;12.50;99.90;;;;;;5073213;28;20048;-82
2023/10/24 01:29:24;;;;;;;7.93;4.90;;;12.50;99.90;;;;;;5072683;28;20025;-81
2023/10/24 01:31:49;;;;;;;7.30;4.15;;;12.50;99.90;;;;;;5072835;28;20039;-81
2023/10/24 01:34:15;;;;;;;11.13;4.85;;;12.50;99.90;;;;;;5072386;28;20074;-80
2023/10/24 01:36:41;;;;;;;9.30;4.30;;;12.50;99.90;;;;;;5072490;28;20481;-82
2023/10/24 01:39:07;;;;;;;6.85;4.53;;;12.50;99.90;;;;;;5072770;28;20035;-81
2023/10/24 01:41:33;;;;;;;7.68;4.50;;;12.50;99.90;;;;;;5072500;28;20034;-81
2023/10/24 01:43:59;;;;;;;8.68;4.78;;;12.50;99.90;;;;;;5072445;28;20094;-82
2023/10/24 01:46:25;;;;;;;7.18;4.45;;;12.50;99.90;;;;;;5071968;28;20075;-82
2023/10/24 01:48:50;;;;;;;9.57;5.55;;;12.50;99.90;;;;;;5073023;28;20060;-82
2023/10/24 01:51:16;;;;;;;7.82;4.63;;;12.50;99.90;;;;;;5072579;28;20036;-80
2023/10/24 01:53:41;;;;;;;7.57;4.75;;;12.50;99.90;;;;;;5072764;28;20537;-82
2023/10/24 01:56:10;;;;;;;7.35;4.63;;;12.50;99.90;;;;;;5072880;28;20028;-82
2023/10/24 01:58:36;;;;;;;6.95;4.47;;;12.50;99.90;;;;;;5073302;28;20025;-82
2023/10/24 02:01:02;;;;;;;7.93;4.35;;;12.60;99.90;;;;;;5073581;28;20056;-82
2023/10/24 02:03:28;;;;;;;7.75;5.13;;;12.60;99.90;;;;;;5072010;28;20033;-82
2023/10/24 02:05:53;;;;;;;10.55;4.55;;;12.50;99.90;;;;;;5072329;28;20021;-82
2023/10/24 02:08:19;;;;;;;8.38;4.80;;;12.50;99.90;;;;;;5072676;28;20025;-82
2023/10/24 02:10:45;;;;;;;7.25;4.53;;;12.50;99.90;;;;;;5073451;28;20037;-82
2023/10/24 02:13:10;;;;;;;8.18;4.72;;;12.60;99.90;;;;;;5073713;28;20025;-82
2023/10/24 02:15:37;;;;;;;9.20;5.22;;;12.50;99.90;;;;;;5071773;28;20116;-82
2023/10/24 02:18:03;;;;;;;10.30;4.95;;;12.60;99.90;;;;;;5072507;28;20035;-82
2023/10/24 02:20:28;;;;;;;8.45;5.03;;;12.60;99.90;;;;;;5071946;28;20033;-82
2023/10/24 02:22:54;;;;;;;7.57;4.53;;;12.60;99.90;;;;;;5072335;28;20393;-82
2023/10/24 02:25:19;;;;;;;8.20;4.90;;;12.60;99.90;;;;;;5072738;28;20147;-81
2023/10/24 02:27:45;;;;;;;7.40;5.03;;;12.60;99.90;;;;;;5075613;28;20021;-82
2023/10/24 02:30:11;;;;;;;7.65;5.10;;;12.60;99.90;;;;;;5076052;28;20457;-82
2023/10/24 02:32:37;;;;;;;6.13;4.53;;;12.60;99.90;;;;;;5075881;28;20063;-83
2023/10/24 02:35:03;;;;;;;8.25;4.72;;;12.60;99.90;;;;;;5075946;28;20507;-82
2023/10/24 02:37:29;;;;;;;8.38;4.57;;;12.60;99.90;;;;;;5075777;28;20024;-83
2023/10/24 02:39:55;;;;;;;10.25;5.55;;;12.60;99.90;;;;;;5076964;28;20025;-82
2023/10/24 02:42:20;;;;;;;7.03;4.82;;;12.60;99.90;;;;;;5075401;28;20033;-82
2023/10/24 02:44:49;;;;;;;10.98;4.93;;;12.60;99.90;;;;;;5076826;28;20024;-83
2023/10/24 02:47:15;;;;;;;9.30;5.15;;;12.60;99.90;;;;;;5075915;28;20029;-82
2023/10/24 02:49:40;;;;;;;6.22;4.97;;;12.60;99.90;;;;;;5075543;28;20020;-82
2023/10/24 02:52:06;;;;;;;7.78;4.82;;;12.60;99.90;;;;;;5075902;28;20028;-83
2023/10/24 02:54:31;;;;;;;7.68;4.75;;;12.60;99.90;;;;;;5076395;28;20033;-83
2023/10/24 02:56:57;;;;;;;7.13;4.82;;;12.60;99.90;;;;;;5076864;28;20029;-83
2023/10/24 02:59:22;;;;;;;7.55;4.70;;;12.60;99.90;;;;;;5075458;28;20029;-83
2023/10/24 03:01:48;;;;;;;10.27;5.25;;;12.70;99.90;;;;;;5075646;28;20036;-83
2023/10/24 03:04:14;;;;;;;9.68;5.13;;;12.70;99.90;;;;;;5076623;28;20078;-83
2023/10/24 03:06:39;;;;;;;8.85;5.35;;;12.70;99.90;;;;;;5076184;28;20322;-83
2023/10/24 03:09:05;;;;;;;12.32;5.68;;;12.60;99.90;;;;;;5075732;28;20032;-83
2023/10/24 03:11:30;;;;;;;9.90;5.25;;;12.60;99.90;;;;;;5074826;28;20032;-83
2023/10/24 03:13:56;;;;;;;7.88;5.18;;;12.70;99.90;;;;;;5075720;28;20034;-83
2023/10/24 03:16:22;;;;;;;7.85;5.28;;;12.70;99.90;;;;;;5076312;28;20507;-81
2023/10/24 03:18:48;;;;;;;7.97;5.00;;;12.70;99.90;;;;;;5076834;28;20047;-83
2023/10/24 03:21:13;;;;;;;12.10;5.70;;;12.70;99.90;;;;;;5075446;28;20449;-83
2023/10/24 03:23:44;;;;;;;9.13;5.93;;;12.70;99.90;;;;;;5075954;28;20028;-83
2023/10/24 03:26:09;;;;;;;10.25;5.80;;;12.70;99.90;;;;;;5076187;28;20031;-83
2023/10/24 03:28:35;;;;;;;9.52;5.88;;;12.70;99.90;;;;;;5075708;28;20052;-82
2023/10/24 03:31:06;;;;;;;9.77;5.35;;;12.70;99.90;;;;;;5076331;28;20035;-83
2023/10/24 03:33:33;;;;;;;11.38;5.50;;;12.70;99.90;;;;;;5074841;28;20477;-84
2023/10/24 03:35:59;;;;;;;9.95;5.57;;;12.70;99.90;;;;;;5075006;28;20063;-83
2023/10/24 03:38:26;;;;;;;9.73;5.50;;;12.70;99.90;;;;;;5074056;28;20025;-83
2023/10/24 03:40:52;;;;;;;8.45;5.47;;;12.70;99.90;;;;;;5075285;28;20040;-82
2023/10/24 03:43:18;;;;;;;10.00;5.85;;;12.70;99.90;;;;;;5076268;28;20032;-82
2023/10/24 03:45:44;;;;;;;12.63;5.40;;;12.70;99.90;;;;;;5075594;28;20080;-83
2023/10/24 03:48:11;;;;;;;10.52;5.72;;;12.70;99.90;;;;;;5075140;28;20189;-82
2023/10/24 03:50:37;;;;;;;8.35;5.20;;;12.70;99.90;;;;;;5075242;28;20028;-82
2023/10/24 03:53:04;;;;;;;10.77;6.22;;;12.70;99.90;;;;;;5074748;28;20029;-82
2023/10/24 03:55:30;;;;;;;9.98;5.50;;;12.70;99.90;;;;;;5074399;28;20111;-82
2023/10/24 03:57:56;;;;;;;8.38;5.45;;;12.70;99.90;;;;;;5075117;28;20020;-82
2023/10/24 04:00:22;;;;;;;7.90;5.43;;;12.70;99.90;;;;;;5074899;28;20029;-82
2023/10/24 04:02:51;;;;;;;8.52;4.93;;;12.70;99.90;;;;;;5074317;28;20097;-82
2023/10/24 04:05:16;;;;;;;9.85;5.55;;;12.70;99.90;;;;;;5074718;28;20028;-82
2023/10/24 04:07:42;;;;;;;7.45;5.40;;;12.70;99.90;;;;;;5073928;28;20025;-82
2023/10/24 04:10:08;;;;;;;9.00;5.10;;;12.70;99.90;;;;;;5075681;28;20081;-82
2023/10/24 04:12:34;;;;;;;11.50;5.60;;;12.70;99.90;;;;;;5074691;28;20526;-82
2023/10/24 04:14:59;;;;;;;9.18;5.50;;;12.60;99.90;;;;;;5074236;28;20054;-82
2023/10/24 04:17:25;;;;;;;9.65;5.95;;;12.70;99.90;;;;;;5074926;28;20385;-81
2023/10/24 04:19:50;;;;;;;10.25;5.43;;;12.70;99.90;;;;;;5075240;28;20039;-82
2023/10/24 04:22:16;;;;;;;11.20;5.82;;;12.70;99.90;;;;;;5075208;28;20025;-82
2023/10/24 04:24:42;;;;;;;12.43;5.60;;;12.70;99.90;;;;;;5074766;28;20380;-82
2023/10/24 04:27:09;;;;;;;9.45;5.38;;;12.70;99.90;;;;;;5075346;28;20020;-82
2023/10/24 04:29:34;;;;;;;9.50;5.65;;;12.70;99.90;;;;;;5074457;28;20020;-80
2023/10/24 04:32:00;;;;;;;12.30;6.47;;;12.70;99.90;;;;;;5073817;28;20077;-80
2023/10/24 04:34:26;;;;;;;9.48;5.72;;;12.70;99.90;;;;;;5073845;28;20052;-78
2023/10/24 04:36:53;;;;;;;9.68;5.40;;;12.70;99.90;;;;;;5074841;28;20127;-80
2023/10/24 04:39:19;;;;;;;8.05;5.55;;;12.70;99.90;;;;;;5074766;28;20029;-80
2023/10/24 04:41:48;;;;;;;9.25;5.32;;;12.70;99.90;;;;;;5074472;28;20518;-81
2023/10/24 04:44:14;;;;;;;11.35;6.03;;;12.70;99.90;;;;;;5073661;28;20067;-81
2023/10/24 04:46:40;;;;;;;9.02;5.45;;;12.70;99.90;;;;;;5074406;28;20036;-81
2023/10/24 04:49:06;;;;;;;10.48;5.75;;;12.70;99.90;;;;;;5074837;28;20020;-81
2023/10/24 04:51:31;;;;;;;10.60;5.78;;;12.70;99.90;;;;;;5072282;28;20028;-82
2023/10/24 04:53:57;;;;;;;8.90;5.68;;;12.80;99.90;;;;;;5073668;28;20029;-83
2023/10/24 04:56:22;;;;;;;8.65;5.35;;;12.70;99.90;;;;;;5073662;28;20025;-83
2023/10/24 04:58:49;;;;;;;8.80;5.10;;;12.70;99.90;;;;;;5073171;28;20124;-83
2023/10/24 05:01:15;;;;;;;7.97;5.38;;;12.70;99.90;;;;;;5074521;28;20081;-83
2023/10/24 05:03:40;;;;;;;8.40;5.45;;;12.70;99.90;;;;;;5072909;28;20024;-83
2023/10/24 05:06:06;;;;;;;8.70;5.28;;;12.70;99.90;;;;;;5073429;28;20035;-82
2023/10/24 05:08:32;;;;;;;8.88;5.15;;;12.70;99.90;;;;;;5073065;28;20528;-82
2023/10/24 05:10:58;;;;;;;10.82;6.47;;;12.70;99.90;;;;;;5073485;28;20029;-83
2023/10/24 05:13:24;;;;;;;9.02;6.05;;;12.70;99.90;;;;;;5073443;28;20491;-83
2023/10/24 05:15:49;;;;;;;9.43;5.47;;;12.60;99.90;;;;;;5072513;28;20032;-83
2023/10/24 05:18:15;;;;;;;10.82;5.40;;;12.50;99.90;;;;;;5074194;28;20494;-83
2023/10/24 05:20:41;;;;;;;8.52;5.43;;;12.50;99.90;;;;;;5072631;28;20070;-82
2023/10/24 05:23:07;;;;;;;9.45;5.97;;;12.50;99.90;;;;;;5074174;28;20082;-82
2023/10/24 05:25:32;;;;;;;9.95;6.28;;;12.50;99.90;;;;;;5073927;28;20464;-81
2023/10/24 05:27:58;;;;;;;10.85;5.65;;;12.60;99.90;;;;;;5074075;28;20469;-81
2023/10/24 05:30:24;;;;;;;9.18;5.97;;;12.60;99.90;;;;;;5072946;28;20024;-83
2023/10/24 05:32:49;;;;;;;9.30;5.63;;;12.60;99.90;;;;;;5072622;28;20090;-82
2023/10/24 05:35:15;;;;;;;12.43;6.22;;;12.60;99.90;;;;;;5072807;28;20056;-82
2023/10/24 05:37:41;;;;;;;8.80;6.18;;;12.60;99.90;;;;;;5073450;28;20036;-81
2023/10/24 05:40:07;;;;;;;8.30;5.30;;;12.60;99.90;;;;;;5073921;28;20102;-82
2023/10/24 05:42:33;;;;;;;7.45;5.40;;;12.60;99.90;;;;;;5073331;28;20025;-82
2023/10/24 05:44:58;;;;;;;10.95;5.60;;;12.60;99.90;;;;;;5073852;28;20035;-83
2023/10/24 05:47:24;;;;;;;10.60;5.97;;;12.70;99.90;;;;;;5073816;28;20029;-82
2023/10/24 05:49:50;;;;;;;9.63;5.50;;;12.60;99.90;;;;;;5072474;28;20031;-83
2023/10/24 05:52:16;;;;;;;9.85;5.80;;;12.60;99.90;;;;;;5072852;28;20166;-83
2023/10/24 05:54:42;;;;;;;9.27;5.28;;;12.60;99.90;;;;;;5072371;28;20048;-82
2023/10/24 05:57:08;;;;;;;8.90;5.10;;;12.60;99.90;;;;;;5072840;28;20024;-82
2023/10/24 05:59:34;;;;;;;10.30;5.63;;;12.70;99.90;;;;;;5072253;28;20466;-82
2023/10/24 06:01:59;;;;;;;10.90;6.05;;;12.70;99.90;;;;;;5074126;28;20060;-82
2023/10/24 06:04:25;;;;;;;8.55;5.60;;;12.70;99.90;;;;;;5076727;28;20044;-83
2023/10/24 06:06:50;;;;;;;7.68;5.40;;;12.70;99.90;;;;;;5077406;28;20032;-82
2023/10/24 06:09:17;;;;;;;10.15;6.47;;;12.70;99.90;;;;;;5076775;28;20021;-82
2023/10/24 06:11:43;;;;;;;11.52;7.15;;;12.70;99.90;;;;;;5076328;28;20070;-83
2023/10/24 06:14:09;;;;;;;10.90;5.93;;;12.70;99.90;;;;;;5076393;28;20028;-82
2023/10/24 06:16:34;;;;;;;13.43;6.25;;;12.60;99.90;;;;;;5076909;28;20056;-82
2023/10/24 06:19:00;;;;;;;11.63;6.40;;;12.70;99.90;;;;;;5077506;28;20056;-83
2023/10/24 06:21:26;;;;;;;11.57;6.43;;;12.70;99.90;;;;;;5076210;28;20028;-81
2023/10/24 06:23:53;;;;;;;9.35;5.60;;;12.70;99.90;;;;;;5075532;28;20180;-81
2023/10/24 06:26:19;;;;;;;12.07;5.90;;;12.80;99.90;;;;;;5076314;28;20082;-81
2023/10/24 06:28:45;;;;;;;9.18;6.00;;;12.80;99.90;;;;;;5076800;28;20028;-81
2023/10/24 06:31:11;;;;;;;10.38;7.03;;;12.70;99.90;;;;;;5077397;28;20028;-81
2023/10/24 06:33:38;;;;;;;13.50;6.40;;;12.70;99.90;;;;;;5076212;28;20098;-83
2023/10/24 06:36:04;;;;;;;11.00;6.05;;;12.70;99.90;;;;;;5076122;28;20045;-84
2023/10/24 06:38:30;;;;;;;14.93;7.15;;;12.70;99.90;;;;;;5076528;28;20028;-82
2023/10/24 06:40:56;;;;;;;11.95;6.45;;;12.70;99.90;;;;;;5075563;28;20039;-82
2023/10/24 06:43:23;;;;;;;14.88;6.95;;;12.70;99.90;;;;;;5076133;28;20027;-83
2023/10/24 06:45:48;;;;;;;10.25;6.30;;;12.70;99.90;;;;;;5076688;28;20036;-83
2023/10/24 06:48:14;;;;;;;12.20;5.85;;;12.70;99.90;;;;;;5076019;28;20389;-83
2023/10/24 06:50:40;;;;;;;12.13;7.13;;;12.80;99.90;;;;;;5075404;28;20073;-83
2023/10/24 06:53:10;;;;;;;9.80;6.07;;;12.80;99.90;;;;;;5075952;28;20033;-81
2023/10/24 06:55:36;;;;;;;11.60;6.22;;;12.80;99.90;;;;;;5076079;28;20079;-79
2023/10/24 06:58:05;;;;;;;10.57;6.65;;;12.90;99.90;;;;;;5077036;28;20071;-81
2023/10/24 07:00:32;;;;;;;11.88;6.40;;;12.90;99.90;;;;;;5075823;28;20028;-80
2023/10/24 07:02:58;;;;;;;9.82;6.43;;;12.90;99.90;;;;;;5075351;28;20032;-82
2023/10/24 07:05:24;;;;;;;9.77;6.30;;;12.90;99.90;;;;;;5075673;28;20024;-82
2023/10/24 07:07:49;;;;;;;11.88;6.00;;;12.80;99.90;;;;;;5076301;28;20094;-81
2023/10/24 07:10:15;;;;;;;9.70;5.53;;;12.90;99.90;;;;;;5075599;28;20029;-82
2023/10/24 07:12:41;;;;;;;11.88;6.40;;;12.90;99.90;;;;;;5074971;28;20051;-81
2023/10/24 07:15:08;;;;;;;10.80;6.13;;;12.90;99.90;;;;;;5074431;28;20036;-82
2023/10/24 07:17:34;;;;;;;10.68;5.55;;;12.90;99.90;;;;;;5076372;28;20036;-81
2023/10/24 07:19:59;;;;;;;11.27;6.45;;;12.90;99.90;;;;;;5074952;28;20025;-82
2023/10/24 07:22:26;;;;;;;9.60;5.90;;;12.90;99.90;;;;;;5075246;28;20032;-82
2023/10/24 07:24:52;;;;;;;10.93;6.15;;;12.90;99.90;;;;;;5074512;28;20117;-82
2023/10/24 07:27:18;;;;;;;10.13;6.40;;;12.90;99.90;;;;;;5076185;28;20191;-81
2023/10/24 07:29:45;;;;;;;15.05;6.95;;;13.00;99.90;;;;;;5074646;28;20035;-81
2023/10/24 07:32:11;;;;;;;9.25;6.00;;;12.90;99.90;;;;;;5075950;28;20025;-81
2023/10/24 07:34:39;;;;;;;12.23;6.68;;;12.90;99.90;;;;;;5074593;28;20123;-80
2023/10/24 07:37:05;;;;;;;10.93;6.82;;;12.90;99.90;;;;;;5076231;28;20048;-81
2023/10/24 07:39:30;;;;;;;9.75;6.00;;;12.90;99.90;;;;;;5075002;28;20024;-81
2023/10/24 07:41:56;;;;;;;11.68;6.32;;;13.00;99.90;;;;;;5074536;28;20516;-81
2023/10/24 07:44:22;;;;;;;11.70;7.20;;;13.00;99.90;;;;;;5075091;28;20032;-83
2023/10/24 07:46:47;;;;;;;12.32;6.32;;;13.00;99.90;;;;;;5074406;28;20028;-81
2023/10/24 07:49:13;;;;;;;12.93;6.88;;;13.00;99.90;;;;;;5075845;28;20033;-83
2023/10/24 07:51:39;;;;;;;10.18;6.32;;;13.00;99.90;;;;;;5074314;28;20458;-81
2023/10/24 07:54:04;;;;;;;11.75;6.50;;;13.00;99.90;;;;;;5075821;28;20518;-82
2023/10/24 07:56:30;;;;;;;10.13;6.38;;;13.00;99.90;;;;;;5074744;28;20029;-83
2023/10/24 07:58:55;;;;;;;8.75;5.55;;;13.00;99.90;;;;;;5074052;28;20067;-81
2023/10/24 08:01:21;;;;;;;9.10;5.53;;;13.10;99.90;;;;;;5075545;28;20077;-84
2023/10/24 08:03:47;;;;;;;9.38;5.18;;;13.10;99.90;;;;;;5074097;28;20077;-83
2023/10/24 08:06:13;;;;;;;9.40;5.25;;;13.10;99.90;;;;;;5074856;28;20025;-83
2023/10/24 08:08:39;;;;;;;7.72;4.80;;;13.20;99.90;;;;;;5081683;28;20035;-81
2023/10/24 08:11:06;;;;;;;9.75;5.25;;;13.20;99.90;;;;;;5082322;28;20020;-85
2023/10/24 08:13:31;;;;;;;8.05;5.05;;;13.10;99.90;;;;;;5075374;28;20116;-82
2023/10/24 08:16:00;;;;;;;9.00;4.80;;;13.20;99.90;;;;;;5088252;28;20055;-82
2023/10/24 08:18:26;;;;;;;8.18;5.00;;;13.20;99.90;;;;;;5094266;28;20078;-82
2023/10/24 08:20:52;;;;;;;10.48;5.20;;;13.20;99.90;;;;;;5093760;28;20538;-84
2023/10/24 08:23:17;;;;;;;8.50;5.15;;;13.20;99.90;;;;;;5093929;28;20059;-84
2023/10/24 08:25:43;;;;;;;7.57;4.88;;;13.20;99.90;;;;;;5092967;28;20093;-84
2023/10/24 08:28:08;;;;;;;6.90;4.60;;;13.20;99.90;;;;;;5094364;28;20024;-84
2023/10/24 08:30:34;;;;;;;9.02;5.22;;;13.20;99.90;;;;;;5094730;28;20020;-85
2023/10/24 08:33:00;;;;;;;8.35;4.60;;;13.30;99.90;;;;;;5093869;28;20039;-84
2023/10/24 08:35:26;;;;;;;10.35;5.20;;;13.30;99.90;;;;;;5092888;28;20044;-88
2023/10/24 08:37:51;;;;;;;7.15;4.78;;;13.30;99.90;;;;;;5099305;28;20035;-81
2023/10/24 08:40:17;;;;;;;10.50;5.78;;;13.20;99.90;;;;;;5105725;28;20031;-82
2023/10/24 08:42:43;;;;;;;10.52;5.13;;;13.30;99.90;;;;;;5098305;28;20028;-80
2023/10/24 08:45:10;;;;;;;7.55;4.95;;;13.30;99.90;;;;;;5096255;28;20534;-81
2023/10/24 08:47:36;;;;;;;8.45;4.90;;;13.30;99.90;;;;;;5112208;28;20113;-80
2023/10/24 08:50:02;;;;;;;6.90;3.83;;;13.30;99.90;;;;;;5108029;28;20072;-81
2023/10/24 08:52:30;;;;;;;6.32;4.35;;;13.30;99.90;;;;;;5107601;28;20083;-81
2023/10/24 08:54:58;;;;;;;8.40;4.57;;;13.30;99.90;;;;;;5114176;28;20027;-80
2023/10/24 08:57:32;;;;;;;7.35;4.30;;;13.30;99.90;;;;;;5111824;28;20031;-82
2023/10/24 08:59:59;;;;;;;8.85;4.45;;;13.30;99.90;;;;;;5105063;28;20032;-81
2023/10/24 09:02:25;;;;;;;5.32;3.50;;;13.30;99.90;;;;;;5108110;28;20032;-82
2023/10/24 09:04:51;;;;;;;8.70;4.30;;;13.30;99.90;;;;;;5094098;28;20035;-83
2023/10/24 09:07:17;;;;;;;7.03;4.25;;;13.30;99.90;;;;;;5093601;28;20028;-82
2023/10/24 09:09:42;;;;;;;7.07;3.58;;;13.30;99.90;;;;;;5095075;28;20035;-81
2023/10/24 09:12:14;;;;;;;7.72;3.85;;;13.40;99.90;;;;;;5104861;28;20113;-83
2023/10/24 09:14:40;;;;;;;9.38;4.07;;;13.40;99.90;;;;;;5114319;28;20028;-82
2023/10/24 09:17:05;;;;;;;9.70;3.88;;;13.40;99.90;;;;;;5114736;28;20036;-84
2023/10/24 09:19:32;;;;;;;8.05;3.47;;;13.40;99.90;;;;;;5096650;28;20030;-82
2023/10/24 09:21:59;;;;;;;6.38;3.60;;;13.40;99.90;;;;;;5112741;28;20032;-84
2023/10/24 09:24:25;;;;;;;6.72;3.53;;;13.40;99.90;;;;;;5114056;28;20027;-80
2023/10/24 09:26:55;;;;;;;5.28;3.35;;;13.40;99.90;;;;;;5112737;28;20028;-80
2023/10/24 09:29:24;;;;;;;4.70;3.47;;;13.40;99.90;;;;;;5096807;28;20028;-80
2023/10/24 09:31:50;;;;;;;8.93;3.78;;;13.50;99.90;;;;;;5101754;28;20024;-80
2023/10/24 09:34:17;;;;;;;7.35;4.30;;;13.50;99.90;;;;;;5103278;28;20027;-80
2023/10/24 09:36:44;;;;;;;5.03;3.67;;;13.50;99.90;;;;;;5103686;28;20477;-80
2023/10/24 09:39:13;;;;;;;9.27;3.40;;;13.50;99.90;;;;;;5094397;28;20020;-80
2023/10/24 09:41:47;;;;;;;7.47;3.83;;;13.50;99.90;;;;;;5107571;28;20456;-83
2023/10/24 09:44:13;;;;;;;10.25;4.50;;;13.50;99.90;;;;;;5104515;28;20026;-83
2023/10/24 09:46:39;;;;;;;5.53;3.67;;;13.50;99.90;;;;;;5099807;28;20066;-82
2023/10/24 09:49:06;;;;;;;5.80;3.70;;;13.60;99.90;;;;;;5108924;28;20028;-82
2023/10/24 09:51:35;;;;;;;6.40;3.72;;;13.50;99.90;;;;;;5092343;28;20032;-83
2023/10/24 09:54:03;;;;;;;5.72;3.75;;;13.60;99.90;;;;;;5091860;28;20058;-83
2023/10/24 09:56:29;;;;;;;8.93;4.25;;;13.60;99.90;;;;;;5092881;28;20036;-83
2023/10/24 09:58:55;;;;;;;5.25;3.63;;;13.60;99.90;;;;;;5091965;28;20582;-86
2023/10/24 10:01:27;;;;;;;7.22;3.97;;;13.60;99.90;;;;;;5095919;28;20069;-82
2023/10/24 10:03:58;;;;;;;6.20;3.85;;;13.60;99.90;;;;;;5104226;28;20031;-82
2023/10/24 10:06:26;;;;;;;7.13;3.70;;;13.60;99.90;;;;;;5098173;28;20036;-82
2023/10/24 10:08:56;;;;;;;5.35;3.80;;;13.60;99.90;;;;;;5107974;28;20038;-83
2023/10/24 10:11:24;;;;;;;6.40;3.58;;;13.60;99.90;;;;;;5080491;28;20020;-84
2023/10/24 10:13:57;;;;;;;6.82;3.80;;;13.60;99.90;;;;;;5113419;28;20049;-83
2023/10/24 10:16:48;;;;;;;7.93;4.28;;;13.60;99.90;;;;;;5101105;28;20493;-84
2023/10/24 10:19:19;;;;;;;8.73;3.92;;;13.60;99.90;;;;;;5109275;28;20027;-81
2023/10/24 10:22:15;;;;;;;5.95;3.58;;;13.70;99.90;;;;;;5099729;28;20055;-83
2023/10/24 10:25:12;;;;;;;5.25;3.90;;;13.70;99.90;;;;;;5098905;28;20032;-86
2023/10/24 10:28:07;;;;;;;5.78;3.75;;;13.60;99.90;;;;;;5085073;28;20012;-84
2023/10/24 10:30:41;;;;;;;4.90;3.53;;;13.70;99.90;;;;;;5111738;28;20027;-83
2023/10/24 10:33:11;;;;;;;7.75;4.25;;;13.70;99.90;;;;;;5092802;28;20029;-86
2023/10/24 10:35:53;;;;;;;6.03;4.05;;;13.70;99.90;;;;;;5097978;28;20053;-88
2023/10/24 10:38:24;;;;;;;7.55;3.95;;;13.70;99.90;;;;;;5071778;28;20032;-84
2023/10/24 10:40:50;;;;;;;;;;;13.70;99.90;;;;;;5105318;28;20052;-84
2023/10/24 10:43:31;;;;;;;6.20;3.60;;;13.70;99.90;;;;;;5096736;28;19915;-82
2023/10/24 10:46:19;;;;;;;6.85;4.07;;;13.70;99.90;;;;;;5104555;28;20089;-83
2023/10/24 10:48:48;;;;;;;6.95;4.20;;;13.60;99.90;;;;;;5108343;28;20102;-83
2023/10/24 10:51:20;;;;;;;6.80;4.05;;;13.70;99.90;;;;;;5096671;28;20032;-84
2023/10/24 10:54:00;;;;;;;7.30;4.00;;;13.70;99.90;;;;;;5096328;28;20043;-91
2023/10/24 10:56:33;;;;;;;8.30;4.45;;;13.70;99.90;;;;;;5108793;28;20020;-85
2023/10/24 10:59:08;;;;;;;6.80;3.63;;;13.80;99.90;;;;;;5098864;28;20093;-84
2023/10/24 11:01:58;;;;;;;7.97;4.05;;;13.80;99.90;;;;;;5111116;28;20480;-84
2023/10/24 11:04:24;;;;;;;6.28;4.10;;;13.80;99.90;;;;;;5109088;28;20020;-84
2023/10/24 11:06:54;;;;;;;6.22;3.83;;;13.80;99.90;;;;;;5100896;28;20390;-83
2023/10/24 11:09:21;;;;;;;8.40;4.10;;;13.80;99.90;;;;;;5113339;28;20027;-83
2023/10/24 11:12:07;;;;;;;7.38;4.00;;;13.90;99.90;;;;;;5102408;28;20107;-87
2023/10/24 11:14:33;;;;;;;6.55;4.15;;;13.90;99.90;;;;;;5102036;28;20381;-84
2023/10/24 11:16:59;;;;;;;7.82;3.83;;;13.80;99.90;;;;;;5111905;28;20032;-83
2023/10/24 11:19:26;;;;;;;6.75;3.85;;;13.80;99.90;;;;;;5099989;28;20101;-85
2023/10/24 11:21:54;;;;;;;5.55;4.43;;;13.80;99.90;;;;;;5107745;28;20031;-84
2023/10/24 11:24:21;;;;;;;6.55;3.63;;;13.80;99.90;;;;;;5107115;28;20034;-84
2023/10/24 11:26:57;;;;;;;5.45;3.85;;;13.90;99.90;;;;;;5099764;28;20028;-83
2023/10/24 11:29:23;;;;;;;6.93;4.47;;;13.90;99.90;;;;;;5076865;28;20036;-83
2023/10/24 11:31:48;;;;;;;6.43;4.13;;;13.90;99.90;;;;;;5088187;28;20037;-84
2023/10/24 11:34:15;;;;;;;7.82;4.30;;;13.90;99.90;;;;;;5095302;28;20111;-84
2023/10/24 11:36:41;;;;;;;6.50;4.38;;;14.00;99.90;;;;;;5094835;28;20055;-84
2023/10/24 11:39:08;;;;;;;7.13;4.43;;;14.00;99.90;;;;;;5095917;28;20107;-82
2023/10/24 11:41:35;;;;;;;5.60;4.10;;;14.00;99.90;;;;;;5095142;28;20024;-83
2023/10/24 11:44:01;;;;;;;7.53;4.40;;;14.00;99.90;;;;;;5088758;28;20358;-82
2023/10/24 11:46:27;;;;;;;8.13;4.45;;;14.00;99.90;;;;;;5108138;28;20034;-83
2023/10/24 11:48:52;;;;;;;7.93;4.15;;;14.00;99.90;;;;;;5097932;28;20035;-82
2023/10/24 11:51:18;;;;;;;6.85;4.57;;;14.00;99.90;;;;;;5111259;28;20804;-81
2023/10/24 11:53:43;;;;;;;6.85;4.47;;;14.10;99.90;;;;;;5101326;28;20035;-81
2023/10/24 11:56:10;;;;;;;7.88;4.63;;;14.00;99.90;;;;;;5103830;28;20032;-82
2023/10/24 11:58:35;;;;;;;6.95;4.03;;;14.10;99.90;;;;;;5095297;28;20481;-81
2023/10/24 12:01:02;;;;;;;8.73;4.57;;;14.10;99.90;;;;;;5110831;28;20035;-80
2023/10/24 12:03:47;;;;;;;7.95;4.60;;;14.20;99.90;;;;;;5098756;28;20102;-84
2023/10/24 12:06:17;;;;;;;9.00;4.63;;;14.20;99.90;;;;;;5096476;28;20035;-83
2023/10/24 12:08:43;;;;;;;6.47;4.30;;;14.20;99.90;;;;;;5109645;28;20031;-82
2023/10/24 12:11:10;;;;;;;7.15;4.60;;;14.30;99.90;;;;;;5097056;28;20036;-83
2023/10/24 12:13:36;;;;;;;7.05;4.22;;;14.20;99.90;;;;;;5108495;28;20028;-84
2023/10/24 12:16:02;;;;;;;7.32;4.15;;;14.20;99.90;;;;;;5105357;28;20024;-84
2023/10/24 12:18:29;;;;;;;8.95;4.68;;;14.30;99.90;;;;;;5093968;28;20032;-82
2023/10/24 12:20:55;;;;;;;6.20;4.28;;;14.30;99.90;;;;;;5111251;28;20027;-86
2023/10/24 12:23:21;;;;;;;6.95;3.95;;;14.30;99.90;;;;;;5097612;28;20022;-84
2023/10/24 12:25:47;;;;;;;9.95;4.63;;;14.30;99.90;;;;;;5106546;28;20063;-82
2023/10/24 12:28:13;;;;;;;7.05;3.72;;;14.30;99.90;;;;;;5103847;28;20028;-84
2023/10/24 12:30:38;;;;;;;7.30;4.32;;;14.40;99.90;;;;;;5107082;28;20046;-83
2023/10/24 12:33:04;;;;;;;10.82;5.13;;;14.40;99.90;;;;;;5094827;28;20164;-82
2023/10/24 12:35:29;;;;;;;8.35;3.80;;;14.50;99.90;;;;;;5109307;28;20016;-83
2023/10/24 12:37:55;;;;;;;9.20;4.10;;;14.60;99.90;;;;;;5093221;28;20109;-84
2023/10/24 12:40:21;;;;;;;9.30;3.97;;;14.60;99.90;;;;;;5105317;28;20487;-83
2023/10/24 12:42:46;;;;;;;6.20;3.30;;;14.60;99.90;;;;;;5099332;28;20039;-88
2023/10/24 12:45:12;;;;;;;4.18;3.20;;;14.60;99.90;;;;;;5109800;28;20039;-83